sensor_id;sensor_type;location;lat;lon;timestamp;temperature;humidity
11107;DHT22;5607;48.302;14.294;2022-10-30T00:01:15;12.20;81.60
11107;DHT22;5607;48.302;14.294;2022-10-30T00:04:02;12.10;99.90
11107;DHT22;5607;48.302;14.294;2022-10-30T00:06:48;12.00;99.90
11107;DHT22;5607;48.302;14.294;2022-10-30T00:09:34;12.10;99.90
11107;DHT22;5607;48.302;14.294;2022-10-30T00:12:21;12.10;99.90
11107;DHT22;5607;48.302;14.294;2022-10-30T00:15:07;12.20;89.00
11107;DHT22;5607;48.302;14.294;2022-10-30T00:17:53;12.20;83.60
11107;DHT22;5607;48.302;14.294;2022-10-30T00:20:40;12.10;77.50
11107;DHT22;5607;48.302;14.294;2022-10-30T00:23:26;12.10;83.70
11107;DHT22;5607;48.302;14.294;2022-10-30T00:26:12;12.10;84.50
11107;DHT22;5607;48.302;14.294;2022-10-30T00:28:58;12.00;81.30
11107;DHT22;5607;48.302;14.294;2022-10-30T00:31:44;12.00;82.40
11107;DHT22;5607;48.302;14.294;2022-10-30T00:34:31;12.10;82.80
11107;DHT22;5607;48.302;14.294;2022-10-30T00:37:17;12.00;72.50
11107;DHT22;5607;48.302;14.294;2022-10-30T00:40:03;12.00;73.40
11107;DHT22;5607;48.302;14.294;2022-10-30T00:42:50;12.00;70.80
11107;DHT22;5607;48.302;14.294;2022-10-30T00:45:37;12.00;66.10
11107;DHT22;5607;48.302;14.294;2022-10-30T00:48:23;12.00;69.20
11107;DHT22;5607;48.302;14.294;2022-10-30T00:51:11;12.00;78.50
11107;DHT22;5607;48.302;14.294;2022-10-30T00:53:58;12.00;75.40
11107;DHT22;5607;48.302;14.294;2022-10-30T00:56:45;12.00;62.20
11107;DHT22;5607;48.302;14.294;2022-10-30T00:59:32;12.00;55.00
11107;DHT22;5607;48.302;14.294;2022-10-30T01:02:20;11.90;55.80
11107;DHT22;5607;48.302;14.294;2022-10-30T01:05:07;11.90;59.00
11107;DHT22;5607;48.302;14.294;2022-10-30T01:07:54;11.90;64.50
11107;DHT22;5607;48.302;14.294;2022-10-30T01:10:40;11.90;57.90
11107;DHT22;5607;48.302;14.294;2022-10-30T01:13:27;11.90;51.30
11107;DHT22;5607;48.302;14.294;2022-10-30T01:19:37;11.80;33.30
11107;DHT22;5607;48.302;14.294;2022-10-30T01:33:50;11.70;29.70
11107;DHT22;5607;48.302;14.294;2022-10-30T01:37:00;11.70;30.00
11107;DHT22;5607;48.302;14.294;2022-10-30T01:39:47;11.70;32.10
11107;DHT22;5607;48.302;14.294;2022-10-30T01:42:47;11.70;35.40
11107;DHT22;5607;48.302;14.294;2022-10-30T01:45:57;11.60;32.70
11107;DHT22;5607;48.302;14.294;2022-10-30T01:54:31;11.60;43.40
11107;DHT22;5607;48.302;14.294;2022-10-30T02:00:11;11.60;38.40
11107;DHT22;5607;48.302;14.294;2022-10-30T02:02:58;11.60;32.70
11107;DHT22;5607;48.302;14.294;2022-10-30T02:05:46;11.60;36.50
11107;DHT22;5607;48.302;14.294;2022-10-30T02:08:33;11.60;37.50
11107;DHT22;5607;48.302;14.294;2022-10-30T02:11:19;11.60;34.30
11107;DHT22;5607;48.302;14.294;2022-10-30T02:14:06;11.60;41.70
11107;DHT22;5607;48.302;14.294;2022-10-30T02:16:54;11.60;49.20
11107;DHT22;5607;48.302;14.294;2022-10-30T02:19:42;11.60;52.20
11107;DHT22;5607;48.302;14.294;2022-10-30T02:22:28;11.60;55.60
11107;DHT22;5607;48.302;14.294;2022-10-30T02:25:14;11.60;53.00
11107;DHT22;5607;48.302;14.294;2022-10-30T02:28:00;11.60;55.50
11107;DHT22;5607;48.302;14.294;2022-10-30T02:30:47;11.60;53.80
11107;DHT22;5607;48.302;14.294;2022-10-30T02:33:33;11.60;56.60
11107;DHT22;5607;48.302;14.294;2022-10-30T02:36:19;11.60;58.20
11107;DHT22;5607;48.302;14.294;2022-10-30T02:39:05;11.60;56.50
11107;DHT22;5607;48.302;14.294;2022-10-30T02:41:52;11.60;53.80
11107;DHT22;5607;48.302;14.294;2022-10-30T02:44:38;11.60;55.30
11107;DHT22;5607;48.302;14.294;2022-10-30T02:47:24;11.50;59.80
11107;DHT22;5607;48.302;14.294;2022-10-30T02:50:11;11.50;73.70
11107;DHT22;5607;48.302;14.294;2022-10-30T02:52:57;11.50;76.30
11107;DHT22;5607;48.302;14.294;2022-10-30T02:55:44;11.50;75.80
11107;DHT22;5607;48.302;14.294;2022-10-30T02:58:30;11.50;83.80
11107;DHT22;5607;48.302;14.294;2022-10-30T03:01:17;11.40;83.50
11107;DHT22;5607;48.302;14.294;2022-10-30T03:04:04;11.40;93.90
11107;DHT22;5607;48.302;14.294;2022-10-30T03:06:50;11.40;88.60
11107;DHT22;5607;48.302;14.294;2022-10-30T03:09:36;11.40;97.70
11107;DHT22;5607;48.302;14.294;2022-10-30T03:12:22;11.30;99.90
11107;DHT22;5607;48.302;14.294;2022-10-30T03:15:09;11.30;99.90
11107;DHT22;5607;48.302;14.294;2022-10-30T03:17:55;11.30;99.90
11107;DHT22;5607;48.302;14.294;2022-10-30T03:20:41;11.30;99.90
11107;DHT22;5607;48.302;14.294;2022-10-30T03:23:27;11.30;99.90
11107;DHT22;5607;48.302;14.294;2022-10-30T03:26:14;11.30;99.90
11107;DHT22;5607;48.302;14.294;2022-10-30T03:29:00;11.20;99.90
11107;DHT22;5607;48.302;14.294;2022-10-30T03:31:46;11.20;99.90
11107;DHT22;5607;48.302;14.294;2022-10-30T03:34:32;11.20;99.90
11107;DHT22;5607;48.302;14.294;2022-10-30T03:37:18;11.10;99.90
11107;DHT22;5607;48.302;14.294;2022-10-30T03:40:05;11.10;99.90
11107;DHT22;5607;48.302;14.294;2022-10-30T03:42:51;11.10;99.90
11107;DHT22;5607;48.302;14.294;2022-10-30T03:45:37;11.20;99.90
11107;DHT22;5607;48.302;14.294;2022-10-30T03:48:25;11.10;99.90
11107;DHT22;5607;48.302;14.294;2022-10-30T03:51:11;11.20;99.90
11107;DHT22;5607;48.302;14.294;2022-10-30T03:53:57;11.20;99.90
11107;DHT22;5607;48.302;14.294;2022-10-30T03:56:44;11.20;99.90
11107;DHT22;5607;48.302;14.294;2022-10-30T03:59:30;11.30;99.90
11107;DHT22;5607;48.302;14.294;2022-10-30T04:02:17;11.40;99.90
11107;DHT22;5607;48.302;14.294;2022-10-30T04:05:03;11.40;99.90
11107;DHT22;5607;48.302;14.294;2022-10-30T04:07:54;11.40;99.90
11107;DHT22;5607;48.302;14.294;2022-10-30T04:10:43;11.40;99.90
11107;DHT22;5607;48.302;14.294;2022-10-30T04:13:30;11.40;99.90
11107;DHT22;5607;48.302;14.294;2022-10-30T04:16:16;11.40;99.90
11107;DHT22;5607;48.302;14.294;2022-10-30T04:19:02;11.50;99.90
11107;DHT22;5607;48.302;14.294;2022-10-30T04:21:48;11.50;99.90
11107;DHT22;5607;48.302;14.294;2022-10-30T04:24:36;11.50;99.90
11107;DHT22;5607;48.302;14.294;2022-10-30T04:27:24;11.50;99.90
11107;DHT22;5607;48.302;14.294;2022-10-30T04:30:11;11.50;98.80
11107;DHT22;5607;48.302;14.294;2022-10-30T04:32:58;11.40;96.40
11107;DHT22;5607;48.302;14.294;2022-10-30T04:35:44;11.40;99.90
11107;DHT22;5607;48.302;14.294;2022-10-30T04:38:30;11.40;99.90
11107;DHT22;5607;48.302;14.294;2022-10-30T04:41:16;11.30;99.90
11107;DHT22;5607;48.302;14.294;2022-10-30T04:44:03;11.30;99.90
11107;DHT22;5607;48.302;14.294;2022-10-30T04:46:49;11.30;99.90
11107;DHT22;5607;48.302;14.294;2022-10-30T04:49:36;11.30;99.90
11107;DHT22;5607;48.302;14.294;2022-10-30T04:52:22;11.40;99.90
11107;DHT22;5607;48.302;14.294;2022-10-30T04:55:08;11.40;99.90
11107;DHT22;5607;48.302;14.294;2022-10-30T04:57:55;11.40;99.90
11107;DHT22;5607;48.302;14.294;2022-10-30T05:00:42;11.30;99.90
11107;DHT22;5607;48.302;14.294;2022-10-30T05:03:28;11.40;99.90
11107;DHT22;5607;48.302;14.294;2022-10-30T05:09:01;11.30;99.90
11107;DHT22;5607;48.302;14.294;2022-10-30T05:11:47;11.30;99.90
11107;DHT22;5607;48.302;14.294;2022-10-30T05:14:33;11.30;99.90
11107;DHT22;5607;48.302;14.294;2022-10-30T05:17:20;11.40;99.90
11107;DHT22;5607;48.302;14.294;2022-10-30T05:20:06;11.40;99.90
11107;DHT22;5607;48.302;14.294;2022-10-30T05:22:56;11.40;99.90
11107;DHT22;5607;48.302;14.294;2022-10-30T05:25:43;11.40;99.90
11107;DHT22;5607;48.302;14.294;2022-10-30T05:28:29;11.40;99.90
11107;DHT22;5607;48.302;14.294;2022-10-30T05:31:15;11.40;99.90
11107;DHT22;5607;48.302;14.294;2022-10-30T05:34:01;11.40;99.90
11107;DHT22;5607;48.302;14.294;2022-10-30T05:36:48;11.40;99.90
11107;DHT22;5607;48.302;14.294;2022-10-30T05:39:34;11.30;99.90
11107;DHT22;5607;48.302;14.294;2022-10-30T05:42:20;11.20;99.90
11107;DHT22;5607;48.302;14.294;2022-10-30T05:45:06;11.10;99.90
11107;DHT22;5607;48.302;14.294;2022-10-30T05:47:53;11.00;99.90
11107;DHT22;5607;48.302;14.294;2022-10-30T05:50:40;11.00;99.90
11107;DHT22;5607;48.302;14.294;2022-10-30T05:53:26;11.00;99.90
11107;DHT22;5607;48.302;14.294;2022-10-30T05:56:13;10.90;99.90
11107;DHT22;5607;48.302;14.294;2022-10-30T05:58:59;10.90;99.90
11107;DHT22;5607;48.302;14.294;2022-10-30T06:01:45;10.90;99.90
11107;DHT22;5607;48.302;14.294;2022-10-30T06:04:31;10.90;99.90
11107;DHT22;5607;48.302;14.294;2022-10-30T06:07:18;10.90;99.90
11107;DHT22;5607;48.302;14.294;2022-10-30T06:10:04;11.00;99.90
11107;DHT22;5607;48.302;14.294;2022-10-30T06:12:53;10.90;99.90
11107;DHT22;5607;48.302;14.294;2022-10-30T06:15:41;10.90;99.90
11107;DHT22;5607;48.302;14.294;2022-10-30T06:18:27;10.90;99.90
11107;DHT22;5607;48.302;14.294;2022-10-30T06:21:13;11.10;99.90
11107;DHT22;5607;48.302;14.294;2022-10-30T06:24:00;11.10;99.90
11107;DHT22;5607;48.302;14.294;2022-10-30T06:26:46;11.20;99.90
11107;DHT22;5607;48.302;14.294;2022-10-30T06:29:32;11.30;99.90
11107;DHT22;5607;48.302;14.294;2022-10-30T06:32:18;11.40;99.90
11107;DHT22;5607;48.302;14.294;2022-10-30T06:35:05;11.40;99.90
11107;DHT22;5607;48.302;14.294;2022-10-30T06:37:51;11.40;99.90
11107;DHT22;5607;48.302;14.294;2022-10-30T06:40:38;11.50;99.90
11107;DHT22;5607;48.302;14.294;2022-10-30T06:43:24;11.50;99.90
11107;DHT22;5607;48.302;14.294;2022-10-30T06:46:10;11.40;92.50
11107;DHT22;5607;48.302;14.294;2022-10-30T06:48:57;11.50;99.90
11107;DHT22;5607;48.302;14.294;2022-10-30T06:51:43;11.50;99.90
11107;DHT22;5607;48.302;14.294;2022-10-30T06:54:29;11.50;99.90
11107;DHT22;5607;48.302;14.294;2022-10-30T06:57:15;11.60;99.90
11107;DHT22;5607;48.302;14.294;2022-10-30T07:00:02;11.60;99.90
11107;DHT22;5607;48.302;14.294;2022-10-30T07:02:55;11.70;99.90
11107;DHT22;5607;48.302;14.294;2022-10-30T07:05:42;11.70;99.90
11107;DHT22;5607;48.302;14.294;2022-10-30T07:08:28;11.60;99.90
11107;DHT22;5607;48.302;14.294;2022-10-30T07:11:14;11.60;99.70
11107;DHT22;5607;48.302;14.294;2022-10-30T07:14:01;11.50;99.90
11107;DHT22;5607;48.302;14.294;2022-10-30T07:16:48;11.40;99.90
11107;DHT22;5607;48.302;14.294;2022-10-30T07:19:34;11.40;99.90
11107;DHT22;5607;48.302;14.294;2022-10-30T07:22:20;11.30;99.90
11107;DHT22;5607;48.302;14.294;2022-10-30T07:25:06;11.30;99.90
11107;DHT22;5607;48.302;14.294;2022-10-30T07:27:53;11.30;99.90
11107;DHT22;5607;48.302;14.294;2022-10-30T07:30:39;11.40;99.90
11107;DHT22;5607;48.302;14.294;2022-10-30T07:33:26;11.40;99.90
11107;DHT22;5607;48.302;14.294;2022-10-30T07:36:12;11.50;99.90
11107;DHT22;5607;48.302;14.294;2022-10-30T07:38:59;11.60;99.90
11107;DHT22;5607;48.302;14.294;2022-10-30T07:41:47;11.70;99.90
11107;DHT22;5607;48.302;14.294;2022-10-30T07:44:34;11.90;99.90
11107;DHT22;5607;48.302;14.294;2022-10-30T07:47:20;12.00;99.90
11107;DHT22;5607;48.302;14.294;2022-10-30T07:50:06;12.10;99.90
11107;DHT22;5607;48.302;14.294;2022-10-30T07:52:53;12.10;84.60
11107;DHT22;5607;48.302;14.294;2022-10-30T07:55:40;12.20;78.70
11107;DHT22;5607;48.302;14.294;2022-10-30T07:58:27;12.10;89.50
11107;DHT22;5607;48.302;14.294;2022-10-30T08:01:13;12.20;93.20
11107;DHT22;5607;48.302;14.294;2022-10-30T08:03:59;12.40;87.90
11107;DHT22;5607;48.302;14.294;2022-10-30T08:06:45;12.40;66.10
11107;DHT22;5607;48.302;14.294;2022-10-30T08:09:32;12.50;54.20
11107;DHT22;5607;48.302;14.294;2022-10-30T08:12:18;12.50;53.90
11107;DHT22;5607;48.302;14.294;2022-10-30T08:15:04;12.60;52.20
11107;DHT22;5607;48.302;14.294;2022-10-30T08:17:51;12.70;28.30
11107;DHT22;5607;48.302;14.294;2022-10-30T08:20:37;12.80;33.10
11107;DHT22;5607;48.302;14.294;2022-10-30T08:23:23;12.80;22.90
11107;DHT22;5607;48.302;14.294;2022-10-30T08:26:09;12.90;26.20
11107;DHT22;5607;48.302;14.294;2022-10-30T08:28:56;13.00;9.70
11107;DHT22;5607;48.302;14.294;2022-10-30T08:31:42;13.10;4.20
11107;DHT22;5607;48.302;14.294;2022-10-30T08:34:29;13.10;1.20
11107;DHT22;5607;48.302;14.294;2022-10-30T08:37:17;13.30;1.00
11107;DHT22;5607;48.302;14.294;2022-10-30T08:40:03;13.30;1.00
11107;DHT22;5607;48.302;14.294;2022-10-30T08:42:50;13.30;1.00
11107;DHT22;5607;48.302;14.294;2022-10-30T08:45:38;13.20;1.00
11107;DHT22;5607;48.302;14.294;2022-10-30T08:48:24;13.20;1.00
11107;DHT22;5607;48.302;14.294;2022-10-30T08:51:10;13.20;1.00
11107;DHT22;5607;48.302;14.294;2022-10-30T08:53:56;13.20;1.00
11107;DHT22;5607;48.302;14.294;2022-10-30T08:56:43;13.20;4.90
11107;DHT22;5607;48.302;14.294;2022-10-30T08:59:29;13.10;1.00
11107;DHT22;5607;48.302;14.294;2022-10-30T09:02:15;13.30;1.00
11107;DHT22;5607;48.302;14.294;2022-10-30T09:05:01;13.30;1.00
11107;DHT22;5607;48.302;14.294;2022-10-30T09:07:48;13.30;1.00
11107;DHT22;5607;48.302;14.294;2022-10-30T09:10:34;13.20;1.00
11107;DHT22;5607;48.302;14.294;2022-10-30T09:13:20;13.30;1.00
11107;DHT22;5607;48.302;14.294;2022-10-30T09:16:06;13.30;1.00
11107;DHT22;5607;48.302;14.294;2022-10-30T09:18:53;13.30;1.00
11107;DHT22;5607;48.302;14.294;2022-10-30T09:21:39;13.30;1.00
11107;DHT22;5607;48.302;14.294;2022-10-30T09:24:25;13.30;1.00
11107;DHT22;5607;48.302;14.294;2022-10-30T09:27:11;13.30;1.00
11107;DHT22;5607;48.302;14.294;2022-10-30T09:29:57;13.40;1.00
11107;DHT22;5607;48.302;14.294;2022-10-30T09:32:44;13.50;1.00
11107;DHT22;5607;48.302;14.294;2022-10-30T09:35:30;13.50;1.00
11107;DHT22;5607;48.302;14.294;2022-10-30T09:38:17;13.70;1.00
11107;DHT22;5607;48.302;14.294;2022-10-30T09:47:13;14.00;1.00
11107;DHT22;5607;48.302;14.294;2022-10-30T09:50:16;14.10;1.00
11107;DHT22;5607;48.302;14.294;2022-10-30T09:53:15;14.10;1.00
11107;DHT22;5607;48.302;14.294;2022-10-30T09:56:08;14.30;1.00
11107;DHT22;5607;48.302;14.294;2022-10-30T10:01:53;14.50;1.00
11107;DHT22;5607;48.302;14.294;2022-10-30T10:04:48;14.60;1.00
11107;DHT22;5607;48.302;14.294;2022-10-30T10:07:38;14.70;1.00
11107;DHT22;5607;48.302;14.294;2022-10-30T10:13:36;14.80;1.00
11107;DHT22;5607;48.302;14.294;2022-10-30T10:16:30;14.90;1.00
11107;DHT22;5607;48.302;14.294;2022-10-30T10:22:20;15.10;1.00
11107;DHT22;5607;48.302;14.294;2022-10-30T10:25:08;15.10;1.00
11107;DHT22;5607;48.302;14.294;2022-10-30T10:28:03;15.20;1.00
11107;DHT22;5607;48.302;14.294;2022-10-30T10:34:15;15.50;1.00
11107;DHT22;5607;48.302;14.294;2022-10-30T10:40:34;15.70;1.00
11107;DHT22;5607;48.302;14.294;2022-10-30T10:46:22;16.00;1.00
11107;DHT22;5607;48.302;14.294;2022-10-30T10:49:16;16.20;1.00
11107;DHT22;5607;48.302;14.294;2022-10-30T10:52:07;16.30;1.00
11107;DHT22;5607;48.302;14.294;2022-10-30T10:54:56;16.50;1.00
11107;DHT22;5607;48.302;14.294;2022-10-30T10:57:44;16.50;1.00
11107;DHT22;5607;48.302;14.294;2022-10-30T11:00:31;16.70;1.00
11107;DHT22;5607;48.302;14.294;2022-10-30T11:03:22;16.70;1.00
11107;DHT22;5607;48.302;14.294;2022-10-30T11:11:57;17.10;1.00
11107;DHT22;5607;48.302;14.294;2022-10-30T11:14:44;17.20;1.00
11107;DHT22;5607;48.302;14.294;2022-10-30T11:20:43;17.30;1.00
11107;DHT22;5607;48.302;14.294;2022-10-30T11:26:24;17.60;1.00
11107;DHT22;5607;48.302;14.294;2022-10-30T11:29:12;17.70;99.90
11107;DHT22;5607;48.302;14.294;2022-10-30T11:32:00;17.70;99.90
11107;DHT22;5607;48.302;14.294;2022-10-30T11:38:13;17.70;99.90
11107;DHT22;5607;48.302;14.294;2022-10-30T11:41:03;17.90;99.90
11107;DHT22;5607;48.302;14.294;2022-10-30T11:43:49;17.90;99.90
11107;DHT22;5607;48.302;14.294;2022-10-30T11:46:35;17.90;99.90
11107;DHT22;5607;48.302;14.294;2022-10-30T11:49:33;17.90;99.90
11107;DHT22;5607;48.302;14.294;2022-10-30T11:52:21;18.00;99.90
11107;DHT22;5607;48.302;14.294;2022-10-30T11:55:25;18.20;99.90
11107;DHT22;5607;48.302;14.294;2022-10-30T11:58:23;18.20;99.90
11107;DHT22;5607;48.302;14.294;2022-10-30T12:03:56;18.40;99.90
11107;DHT22;5607;48.302;14.294;2022-10-30T12:07:07;18.50;99.90
11107;DHT22;5607;48.302;14.294;2022-10-30T12:09:53;18.50;99.90
11107;DHT22;5607;48.302;14.294;2022-10-30T12:12:40;18.50;99.90
11107;DHT22;5607;48.302;14.294;2022-10-30T12:15:27;18.60;99.90
11107;DHT22;5607;48.302;14.294;2022-10-30T12:18:21;18.70;99.90
11107;DHT22;5607;48.302;14.294;2022-10-30T12:21:10;18.70;99.90
11107;DHT22;5607;48.302;14.294;2022-10-30T12:24:02;18.70;99.90
11107;DHT22;5607;48.302;14.294;2022-10-30T12:26:52;18.80;99.90
11107;DHT22;5607;48.302;14.294;2022-10-30T12:32:27;19.00;99.90
11107;DHT22;5607;48.302;14.294;2022-10-30T12:35:30;19.10;99.90
11107;DHT22;5607;48.302;14.294;2022-10-30T12:44:12;19.30;99.90
11107;DHT22;5607;48.302;14.294;2022-10-30T12:47:07;19.40;99.90
11107;DHT22;5607;48.302;14.294;2022-10-30T12:49:59;19.50;99.90
11107;DHT22;5607;48.302;14.294;2022-10-30T12:55:40;19.40;99.90
11107;DHT22;5607;48.302;14.294;2022-10-30T12:58:43;19.50;99.90
11107;DHT22;5607;48.302;14.294;2022-10-30T13:01:32;19.50;99.90
11107;DHT22;5607;48.302;14.294;2022-10-30T13:04:55;19.50;99.90
11107;DHT22;5607;48.302;14.294;2022-10-30T13:13:31;19.50;99.90
11107;DHT22;5607;48.302;14.294;2022-10-30T13:16:21;19.50;99.90
11107;DHT22;5607;48.302;14.294;2022-10-30T13:19:08;19.40;99.90
11107;DHT22;5607;48.302;14.294;2022-10-30T13:22:00;19.40;99.90
11107;DHT22;5607;48.302;14.294;2022-10-30T13:30:24;19.30;99.90
11107;DHT22;5607;48.302;14.294;2022-10-30T13:33:14;19.30;99.90
11107;DHT22;5607;48.302;14.294;2022-10-30T13:36:05;19.30;1.00
11107;DHT22;5607;48.302;14.294;2022-10-30T13:39:40;19.20;99.90
11107;DHT22;5607;48.302;14.294;2022-10-30T13:47:53;19.00;1.00
11107;DHT22;5607;48.302;14.294;2022-10-30T13:53:36;18.90;1.00
11107;DHT22;5607;48.302;14.294;2022-10-30T13:56:23;18.90;1.00
11107;DHT22;5607;48.302;14.294;2022-10-30T13:59:28;18.80;1.00
11107;DHT22;5607;48.302;14.294;2022-10-30T14:05:38;18.70;1.00
11107;DHT22;5607;48.302;14.294;2022-10-30T14:11:20;18.60;1.00
11107;DHT22;5607;48.302;14.294;2022-10-30T14:17:10;18.50;1.00
11107;DHT22;5607;48.302;14.294;2022-10-30T14:26:18;18.40;1.00
11107;DHT22;5607;48.302;14.294;2022-10-30T14:35:00;18.20;1.00
11107;DHT22;5607;48.302;14.294;2022-10-30T14:40:46;18.20;1.00
11107;DHT22;5607;48.302;14.294;2022-10-30T14:43:46;18.10;1.00
11107;DHT22;5607;48.302;14.294;2022-10-30T14:46:42;18.10;1.00
11107;DHT22;5607;48.302;14.294;2022-10-30T14:49:45;18.00;1.00
11107;DHT22;5607;48.302;14.294;2022-10-30T14:52:42;18.00;1.00
11107;DHT22;5607;48.302;14.294;2022-10-30T14:55:32;17.90;1.00
11107;DHT22;5607;48.302;14.294;2022-10-30T14:58:30;17.90;1.00
11107;DHT22;5607;48.302;14.294;2022-10-30T15:15:37;17.50;1.00
11107;DHT22;5607;48.302;14.294;2022-10-30T15:18:23;17.40;1.00
11107;DHT22;5607;48.302;14.294;2022-10-30T15:21:10;17.40;1.00
11107;DHT22;5607;48.302;14.294;2022-10-30T15:24:03;17.30;1.00
11107;DHT22;5607;48.302;14.294;2022-10-30T15:26:57;17.30;1.00
11107;DHT22;5607;48.302;14.294;2022-10-30T15:29:50;17.20;1.00
11107;DHT22;5607;48.302;14.294;2022-10-30T15:32:39;17.10;1.00
11107;DHT22;5607;48.302;14.294;2022-10-30T15:35:26;17.00;1.00
11107;DHT22;5607;48.302;14.294;2022-10-30T15:38:13;17.00;1.00
11107;DHT22;5607;48.302;14.294;2022-10-30T15:41:00;16.90;1.00
11107;DHT22;5607;48.302;14.294;2022-10-30T15:43:47;16.80;1.00
11107;DHT22;5607;48.302;14.294;2022-10-30T15:46:33;16.80;1.00
11107;DHT22;5607;48.302;14.294;2022-10-30T15:49:28;16.70;1.00
11107;DHT22;5607;48.302;14.294;2022-10-30T15:52:28;16.60;1.00
11107;DHT22;5607;48.302;14.294;2022-10-30T15:55:15;16.50;1.00
11107;DHT22;5607;48.302;14.294;2022-10-30T15:58:02;16.50;1.00
11107;DHT22;5607;48.302;14.294;2022-10-30T16:00:57;16.40;1.00
11107;DHT22;5607;48.302;14.294;2022-10-30T16:03:49;16.40;1.00
11107;DHT22;5607;48.302;14.294;2022-10-30T16:06:36;16.20;1.00
11107;DHT22;5607;48.302;14.294;2022-10-30T16:09:22;16.20;1.00
11107;DHT22;5607;48.302;14.294;2022-10-30T16:12:09;16.20;1.00
11107;DHT22;5607;48.302;14.294;2022-10-30T16:14:56;16.10;1.00
11107;DHT22;5607;48.302;14.294;2022-10-30T16:17:42;16.10;1.00
11107;DHT22;5607;48.302;14.294;2022-10-30T16:20:28;16.00;1.00
11107;DHT22;5607;48.302;14.294;2022-10-30T16:23:15;16.00;1.00
11107;DHT22;5607;48.302;14.294;2022-10-30T16:26:02;15.90;1.00
11107;DHT22;5607;48.302;14.294;2022-10-30T16:28:48;15.90;1.00
11107;DHT22;5607;48.302;14.294;2022-10-30T16:31:34;15.80;1.00
11107;DHT22;5607;48.302;14.294;2022-10-30T16:34:23;15.80;1.00
11107;DHT22;5607;48.302;14.294;2022-10-30T16:37:16;15.70;1.00
11107;DHT22;5607;48.302;14.294;2022-10-30T16:40:11;15.70;1.00
11107;DHT22;5607;48.302;14.294;2022-10-30T16:42:58;15.60;1.00
11107;DHT22;5607;48.302;14.294;2022-10-30T16:45:45;15.60;1.00
11107;DHT22;5607;48.302;14.294;2022-10-30T16:48:33;15.60;1.00
11107;DHT22;5607;48.302;14.294;2022-10-30T16:51:20;15.50;1.00
11107;DHT22;5607;48.302;14.294;2022-10-30T16:54:14;15.40;1.00
11107;DHT22;5607;48.302;14.294;2022-10-30T16:57:02;15.40;1.00
11107;DHT22;5607;48.302;14.294;2022-10-30T16:59:49;15.30;1.00
11107;DHT22;5607;48.302;14.294;2022-10-30T17:02:36;15.30;1.00
11107;DHT22;5607;48.302;14.294;2022-10-30T17:05:30;15.30;1.00
11107;DHT22;5607;48.302;14.294;2022-10-30T17:11:05;15.20;1.00
11107;DHT22;5607;48.302;14.294;2022-10-30T17:13:55;15.20;1.00
11107;DHT22;5607;48.302;14.294;2022-10-30T17:16:50;15.10;1.00
11107;DHT22;5607;48.302;14.294;2022-10-30T17:19:37;15.10;1.00
11107;DHT22;5607;48.302;14.294;2022-10-30T17:22:24;15.00;1.00
11107;DHT22;5607;48.302;14.294;2022-10-30T17:25:23;15.00;4.50
11107;DHT22;5607;48.302;14.294;2022-10-30T17:28:27;14.90;7.50
11107;DHT22;5607;48.302;14.294;2022-10-30T17:34:03;14.80;14.70
11107;DHT22;5607;48.302;14.294;2022-10-30T17:36:50;14.80;15.90
11107;DHT22;5607;48.302;14.294;2022-10-30T17:39:36;14.80;19.50
11107;DHT22;5607;48.302;14.294;2022-10-30T17:42:22;14.70;21.20
11107;DHT22;5607;48.302;14.294;2022-10-30T17:45:11;14.80;20.10
11107;DHT22;5607;48.302;14.294;2022-10-30T17:47:57;14.70;16.40
11107;DHT22;5607;48.302;14.294;2022-10-30T17:50:44;14.70;15.10
11107;DHT22;5607;48.302;14.294;2022-10-30T17:53:30;14.60;13.70
11107;DHT22;5607;48.302;14.294;2022-10-30T17:59:03;14.60;7.40
11107;DHT22;5607;48.302;14.294;2022-10-30T18:01:49;14.60;5.60
11107;DHT22;5607;48.302;14.294;2022-10-30T18:04:35;14.60;2.90
11107;DHT22;5607;48.302;14.294;2022-10-30T18:07:21;14.60;1.00
11107;DHT22;5607;48.302;14.294;2022-10-30T18:10:08;14.50;1.00
11107;DHT22;5607;48.302;14.294;2022-10-30T18:12:54;14.40;3.40
11107;DHT22;5607;48.302;14.294;2022-10-30T18:15:41;14.40;3.50
11107;DHT22;5607;48.302;14.294;2022-10-30T18:18:28;14.40;4.80
11107;DHT22;5607;48.302;14.294;2022-10-30T18:21:16;14.40;7.40
11107;DHT22;5607;48.302;14.294;2022-10-30T18:24:07;14.40;8.90
11107;DHT22;5607;48.302;14.294;2022-10-30T18:26:54;14.30;10.50
11107;DHT22;5607;48.302;14.294;2022-10-30T18:29:40;14.30;8.20
11107;DHT22;5607;48.302;14.294;2022-10-30T18:32:26;14.30;10.90
11107;DHT22;5607;48.302;14.294;2022-10-30T18:35:14;14.30;11.10
11107;DHT22;5607;48.302;14.294;2022-10-30T18:38:01;14.30;13.10
11107;DHT22;5607;48.302;14.294;2022-10-30T18:40:47;14.20;13.80
11107;DHT22;5607;48.302;14.294;2022-10-30T18:43:35;14.10;18.20
11107;DHT22;5607;48.302;14.294;2022-10-30T18:46:21;14.10;24.00
11107;DHT22;5607;48.302;14.294;2022-10-30T18:49:08;14.10;23.70
11107;DHT22;5607;48.302;14.294;2022-10-30T18:51:54;14.10;27.80
11107;DHT22;5607;48.302;14.294;2022-10-30T18:54:41;14.10;31.80
11107;DHT22;5607;48.302;14.294;2022-10-30T18:57:27;14.10;32.20
11107;DHT22;5607;48.302;14.294;2022-10-30T19:00:14;14.10;34.10
11107;DHT22;5607;48.302;14.294;2022-10-30T19:03:02;14.00;41.10
11107;DHT22;5607;48.302;14.294;2022-10-30T19:05:48;14.00;44.70
11107;DHT22;5607;48.302;14.294;2022-10-30T19:08:35;13.90;52.20
11107;DHT22;5607;48.302;14.294;2022-10-30T19:11:22;13.90;53.10
11107;DHT22;5607;48.302;14.294;2022-10-30T19:14:10;13.90;58.00
11107;DHT22;5607;48.302;14.294;2022-10-30T19:16:56;13.80;59.60
11107;DHT22;5607;48.302;14.294;2022-10-30T19:19:42;13.80;62.90
11107;DHT22;5607;48.302;14.294;2022-10-30T19:22:29;13.70;68.60
11107;DHT22;5607;48.302;14.294;2022-10-30T19:25:17;13.70;76.30
11107;DHT22;5607;48.302;14.294;2022-10-30T19:28:04;13.70;73.20
11107;DHT22;5607;48.302;14.294;2022-10-30T19:30:50;13.60;79.70
11107;DHT22;5607;48.302;14.294;2022-10-30T19:33:37;13.60;76.90
11107;DHT22;5607;48.302;14.294;2022-10-30T19:36:34;13.60;73.60
11107;DHT22;5607;48.302;14.294;2022-10-30T19:39:21;13.60;78.80
11107;DHT22;5607;48.302;14.294;2022-10-30T19:42:07;13.60;81.90
11107;DHT22;5607;48.302;14.294;2022-10-30T19:44:53;13.60;75.50
11107;DHT22;5607;48.302;14.294;2022-10-30T19:47:43;13.50;77.40
11107;DHT22;5607;48.302;14.294;2022-10-30T19:50:33;13.50;82.60
11107;DHT22;5607;48.302;14.294;2022-10-30T19:53:20;13.50;80.30
11107;DHT22;5607;48.302;14.294;2022-10-30T19:56:08;13.50;76.80
11107;DHT22;5607;48.302;14.294;2022-10-30T19:58:54;13.50;77.30
11107;DHT22;5607;48.302;14.294;2022-10-30T20:01:40;13.50;80.70
11107;DHT22;5607;48.302;14.294;2022-10-30T20:04:28;13.50;74.70
11107;DHT22;5607;48.302;14.294;2022-10-30T20:07:14;13.50;74.50
11107;DHT22;5607;48.302;14.294;2022-10-30T20:10:00;13.50;67.40
11107;DHT22;5607;48.302;14.294;2022-10-30T20:12:47;13.50;68.40
11107;DHT22;5607;48.302;14.294;2022-10-30T20:15:33;13.50;67.40